Time,TemperatureF,DewpointF,PressureIn,WindDirection,WindDirectionDegrees,WindSpeedMPH,WindSpeedGustMPH,Humidity,HourlyPrecipIn,Conditions,Clouds,dailyrainin,SoftwareType,DateUTC
2013-03-02 00:00:00,24.5,19.2,30.33,North,350,0.0,0.0,80,0.00,,,0.00,Wunderground v.1.15,2013-03-02 06:00:00,
2013-03-02 00:05:00,24.4,19.1,30.33,NNW,348,0.0,0.0,80,0.00,,,0.00,Wunderground v.1.15,2013-03-02 06:05:00,
2013-03-02 00:10:00,24.4,19.1,30.33,NNW,340,0.0,0.0,80,0.00,,,0.00,Wunderground v.1.15,2013-03-02 06:10:00,
2013-03-02 00:15:00,24.5,18.9,30.33,NNW,342,0.0,0.0,79,0.00,,,0.00,Wunderground v.1.15,2013-03-02 06:15:00,
2013-03-02 00:20:00,24.5,18.9,30.33,North,351,0.0,0.0,79,0.00,,,0.00,Wunderground v.1.15,2013-03-02 06:20:00,
2013-03-02 00:25:00,24.4,19.1,30.33,NNW,338,0.0,0.0,80,0.00,,,0.00,Wunderground v.1.15,2013-03-02 06:25:00,
2013-03-02 00:35:00,24.3,19.0,30.33,NNW,338,0.0,0.0,80,0.00,,,0.00,Wunderground v.1.15,2013-03-02 06:35:00,
2013-03-02 00:40:00,24.2,18.9,30.33,NNW,338,0.0,0.0,80,0.00,,,0.00,Wunderground v.1.15,2013-03-02 06:40:00,
2013-03-02 00:45:00,24.2,19.2,30.33,NNW,339,0.0,0.0,81,0.00,,,0.00,Wunderground v.1.15,2013-03-02 06:45:00,
2013-03-02 00:50:00,24.2,19.2,30.33,NNW,341,0.0,0.0,81,0.00,,,0.00,Wunderground v.1.15,2013-03-02 06:50:00,
2013-03-02 01:00:00,24.1,19.1,30.33,NNW,346,0.0,0.0,81,0.00,,,0.00,Wunderground v.1.15,2013-03-02 07:00:00,
2013-03-02 01:05:00,24.0,18.7,30.33,NNW,342,1.0,6.0,80,0.00,,,0.00,Wunderground v.1.15,2013-03-02 07:05:00,
2013-03-02 01:10:00,23.7,18.7,30.33,NNW,342,3.0,7.0,81,0.00,,,0.00,Wunderground v.1.15,2013-03-02 07:10:00,
2013-03-02 01:15:00,23.4,18.4,30.33,NNW,342,5.0,7.0,81,0.00,,,0.00,Wunderground v.1.15,2013-03-02 07:15:00,
2013-03-02 01:20:00,22.9,17.9,30.33,NW,325,5.0,5.0,81,0.00,,,0.00,Wunderground v.1.15,2013-03-02 07:20:00,
2013-03-02 01:30:00,22.0,17.3,30.33,NNE,22,4.0,4.0,82,0.00,,,0.00,Wunderground v.1.15,2013-03-02 07:30:00,
2013-03-02 01:35:00,21.6,17.0,30.33,NNW,348,4.0,5.0,82,0.00,,,0.00,Wunderground v.1.15,2013-03-02 07:35:00,
2013-03-02 01:40:00,21.2,16.6,30.33,North,350,4.0,4.0,82,0.00,,,0.00,Wunderground v.1.15,2013-03-02 07:40:00,
2013-03-02 01:45:00,20.9,16.5,30.33,North,355,4.0,4.0,83,0.00,,,0.00,Wunderground v.1.15,2013-03-02 07:45:00,
2013-03-02 01:50:00,20.6,16.3,30.33,NNW,348,3.0,3.0,83,0.00,,,0.00,Wunderground v.1.15,2013-03-02 07:50:00,
2013-03-02 02:00:00,20.0,15.9,30.33,NNW,336,2.0,3.0,84,0.00,,,0.00,Wunderground v.1.15,2013-03-02 08:00:00,
2013-03-02 02:05:00,19.8,15.7,30.32,NNW,340,3.0,3.0,84,0.00,,,0.00,Wunderground v.1.15,2013-03-02 08:05:00,
2013-03-02 02:10:00,19.5,15.5,30.32,NNW,348,3.0,3.0,84,0.00,,,0.00,Wunderground v.1.15,2013-03-02 08:10:00,
2013-03-02 02:15:00,19.2,15.4,30.32,NNW,339,3.0,4.0,85,0.00,,,0.00,Wunderground v.1.15,2013-03-02 08:15:00,
2013-03-02 02:20:00,19.1,15.3,30.32,WNW,302,3.0,5.0,85,0.00,,,0.00,Wunderground v.1.15,2013-03-02 08:20:00,
2013-03-02 02:30:00,18.7,14.9,30.32,North,355,4.0,4.0,85,0.00,,,0.00,Wunderground v.1.15,2013-03-02 08:30:00,
2013-03-02 02:35:00,18.4,14.6,30.32,NW,308,4.0,5.0,85,0.00,,,0.00,Wunderground v.1.15,2013-03-02 08:35:00,
2013-03-02 02:40:00,18.1,14.4,30.32,NW,304,2.0,2.0,85,0.00,,,0.00,Wunderground v.1.15,2013-03-02 08:40:00,
2013-03-02 02:45:00,17.8,14.1,30.32,North,5,1.0,2.0,85,0.00,,,0.00,Wunderground v.1.15,2013-03-02 08:45:00,
2013-03-02 02:50:00,17.6,14.1,30.32,NW,306,0.0,0.0,86,0.00,,,0.00,Wunderground v.1.15,2013-03-02 08:50:00,
2013-03-02 03:00:00,17.3,13.8,30.32,NNW,334,0.0,0.0,86,0.00,,,0.00,Wunderground v.1.15,2013-03-02 09:00:00,
2013-03-02 03:05:00,17.0,13.5,30.31,North,355,0.0,0.0,86,0.00,,,0.00,Wunderground v.1.15,2013-03-02 09:05:00,
2013-03-02 03:10:00,16.8,13.3,30.31,NNW,340,0.0,0.0,86,0.00,,,0.00,Wunderground v.1.15,2013-03-02 09:10:00,
2013-03-02 03:15:00,16.6,13.1,30.31,NNW,336,0.0,0.0,86,0.00,,,0.00,Wunderground v.1.15,2013-03-02 09:15:00,
2013-03-02 03:20:00,16.4,13.2,30.31,NNW,327,0.0,0.0,87,0.00,,,0.00,Wunderground v.1.15,2013-03-02 09:20:00,
2013-03-02 03:25:00,16.2,13.0,30.31,NNW,327,0.0,0.0,87,0.00,,,0.00,Wunderground v.1.15,2013-03-02 09:25:00,
2013-03-02 03:30:00,16.1,12.9,30.31,NW,316,0.0,0.0,87,0.00,,,0.00,Wunderground v.1.15,2013-03-02 09:30:00,
2013-03-02 03:35:00,15.9,12.7,30.31,NW,315,0.0,0.0,87,0.00,,,0.00,Wunderground v.1.15,2013-03-02 09:35:00,
2013-03-02 03:45:00,15.9,13.0,30.32,WNW,294,0.0,0.0,88,0.00,,,0.00,Wunderground v.1.15,2013-03-02 09:45:00,
2013-03-02 03:50:00,15.8,12.9,30.32,North,355,0.0,0.0,88,0.00,,,0.00,Wunderground v.1.15,2013-03-02 09:50:00,
2013-03-02 03:55:00,15.7,12.8,30.32,NW,313,0.0,0.0,88,0.00,,,0.00,Wunderground v.1.15,2013-03-02 09:55:00,
2013-03-02 04:05:00,15.5,12.6,30.32,WNW,298,0.0,0.0,88,0.00,,,0.00,Wunderground v.1.15,2013-03-02 10:05:00,
2013-03-02 04:20:00,15.1,12.2,30.32,NW,309,0.0,0.0,88,0.00,,,0.00,Wunderground v.1.15,2013-03-02 10:20:00,
2013-03-02 04:25:00,15.0,12.3,30.32,WNW,303,0.0,0.0,89,0.00,,,0.00,Wunderground v.1.15,2013-03-02 10:25:00,
2013-03-02 04:30:00,14.9,12.2,30.32,NW,307,0.0,0.0,89,0.00,,,0.00,Wunderground v.1.15,2013-03-02 10:30:00,
2013-03-02 04:35:00,14.8,12.1,30.32,WNW,299,0.0,0.0,89,0.00,,,0.00,Wunderground v.1.15,2013-03-02 10:35:00,
2013-03-02 04:40:00,14.7,12.0,30.32,North,355,0.0,0.0,89,0.00,,,0.00,Wunderground v.1.15,2013-03-02 10:40:00,
2013-03-02 04:45:00,14.5,11.9,30.32,NNW,343,0.0,0.0,89,0.00,,,0.00,Wunderground v.1.15,2013-03-02 10:45:00,
2013-03-02 04:50:00,14.4,11.8,30.32,NNW,346,0.0,0.0,89,0.00,,,0.00,Wunderground v.1.15,2013-03-02 10:50:00,
2013-03-02 05:00:00,14.2,11.6,30.32,NNW,338,0.0,0.0,89,0.00,,,0.00,Wunderground v.1.15,2013-03-02 11:00:00,
2013-03-02 05:05:00,14.0,11.4,30.32,NW,307,0.0,0.0,89,0.00,,,0.00,Wunderground v.1.15,2013-03-02 11:05:00,
2013-03-02 05:15:00,13.9,11.3,30.33,WNW,299,0.0,0.0,89,0.00,,,0.00,Wunderground v.1.15,2013-03-02 11:15:00,
2013-03-02 05:20:00,13.9,11.3,30.33,NW,307,0.0,0.0,89,0.00,,,0.00,Wunderground v.1.15,2013-03-02 11:20:00,
2013-03-02 05:25:00,13.8,11.2,30.33,NW,311,0.0,0.0,89,0.00,,,0.00,Wunderground v.1.15,2013-03-02 11:25:00,
2013-03-02 05:30:00,13.8,11.2,30.33,WNW,303,0.0,0.0,89,0.00,,,0.00,Wunderground v.1.15,2013-03-02 11:30:00,
2013-03-02 05:35:00,13.6,11.0,30.33,WNW,303,0.0,0.0,89,0.00,,,0.00,Wunderground v.1.15,2013-03-02 11:35:00,
2013-03-02 05:40:00,13.6,11.0,30.33,NNW,348,0.0,0.0,89,0.00,,,0.00,Wunderground v.1.15,2013-03-02 11:40:00,
2013-03-02 05:45:00,13.6,11.0,30.33,NW,316,0.0,0.0,89,0.00,,,0.00,Wunderground v.1.15,2013-03-02 11:45:00,
2013-03-02 05:50:00,13.6,11.0,30.33,WNW,299,0.0,0.0,89,0.00,,,0.00,Wunderground v.1.15,2013-03-02 11:50:00,
2013-03-02 05:55:00,13.5,10.9,30.33,WNW,296,0.0,0.0,89,0.00,,,0.00,Wunderground v.1.15,2013-03-02 11:55:00,
2013-03-02 06:05:00,13.3,10.7,30.33,WNW,301,0.0,0.0,89,0.00,,,0.00,Wunderground v.1.15,2013-03-02 12:05:00,
2013-03-02 06:10:00,13.2,10.6,30.33,WNW,300,0.0,0.0,89,0.00,,,0.00,Wunderground v.1.15,2013-03-02 12:10:00,
2013-03-02 06:20:00,12.9,10.5,30.33,NW,316,0.0,0.0,90,0.00,,,0.00,Wunderground v.1.15,2013-03-02 12:20:00,
2013-03-02 06:25:00,12.7,10.3,30.34,NW,310,0.0,0.0,90,0.00,,,0.00,Wunderground v.1.15,2013-03-02 12:25:00,
2013-03-02 06:30:00,12.6,10.0,30.34,NW,315,0.0,0.0,89,0.00,,,0.00,Wunderground v.1.15,2013-03-02 12:30:00,
2013-03-02 06:40:00,12.4,10.0,30.33,NNW,329,0.0,0.0,90,0.00,,,0.00,Wunderground v.1.15,2013-03-02 12:40:00,
2013-03-02 06:45:00,12.3,9.9,30.33,NW,317,0.0,0.0,90,0.00,,,0.00,Wunderground v.1.15,2013-03-02 12:45:00,
2013-03-02 06:50:00,12.2,9.8,30.33,NW,317,0.0,0.0,90,0.00,,,0.00,Wunderground v.1.15,2013-03-02 12:50:00,
2013-03-02 06:55:00,12.1,9.7,30.33,NW,317,0.0,0.0,90,0.00,,,0.00,Wunderground v.1.15,2013-03-02 12:55:00,
2013-03-02 07:00:00,12.1,9.7,30.33,NW,304,0.0,0.0,90,0.00,,,0.00,Wunderground v.1.15,2013-03-02 13:00:00,
2013-03-02 07:05:00,12.1,9.7,30.33,WNW,292,0.0,0.0,90,0.00,,,0.00,Wunderground v.1.15,2013-03-02 13:05:00,
2013-03-02 07:10:00,12.2,9.8,30.33,West,273,0.0,0.0,90,0.00,,,0.00,Wunderground v.1.15,2013-03-02 13:10:00,
2013-03-02 07:15:00,12.3,9.9,30.34,NW,308,0.0,0.0,90,0.00,,,0.00,Wunderground v.1.15,2013-03-02 13:15:00,
2013-03-02 07:20:00,12.6,10.2,30.34,WNW,296,1.0,1.0,90,0.00,,,0.00,Wunderground v.1.15,2013-03-02 13:20:00,
2013-03-02 07:30:00,12.9,10.5,30.34,NW,304,3.0,4.0,90,0.00,,,0.00,Wunderground v.1.15,2013-03-02 13:30:00,
2013-03-02 07:35:00,12.9,10.5,30.34,WNW,303,3.0,7.0,90,0.00,,,0.00,Wunderground v.1.15,2013-03-02 13:35:00,
2013-03-02 07:45:00,13.1,10.7,30.34,WNW,300,4.0,4.0,90,0.00,,,0.00,Wunderground v.1.15,2013-03-02 13:45:00,
2013-03-02 07:50:00,13.3,10.7,30.34,NW,311,4.0,4.0,89,0.00,,,0.00,Wunderground v.1.15,2013-03-02 13:50:00,
2013-03-02 07:55:00,13.5,10.9,30.34,NW,316,4.0,4.0,89,0.00,,,0.00,Wunderground v.1.15,2013-03-02 13:55:00,
2013-03-02 08:00:00,13.8,11.2,30.34,NW,310,5.0,5.0,89,0.00,,,0.00,Wunderground v.1.15,2013-03-02 14:00:00,
2013-03-02 08:05:00,14.0,11.4,30.35,WNW,301,5.0,5.0,89,0.00,,,0.00,Wunderground v.1.15,2013-03-02 14:05:00,
2013-03-02 08:10:00,14.3,11.4,30.34,WNW,298,4.0,4.0,88,0.00,,,0.00,Wunderground v.1.15,2013-03-02 14:10:00,
2013-03-02 08:15:00,14.7,11.8,30.35,WNW,303,4.0,4.0,88,0.00,,,0.00,Wunderground v.1.15,2013-03-02 14:15:00,
2013-03-02 08:20:00,15.0,11.8,30.35,NW,323,4.0,4.0,87,0.00,,,0.00,Wunderground v.1.15,2013-03-02 14:20:00,
2013-03-02 08:25:00,15.3,12.1,30.35,NW,323,4.0,4.0,87,0.00,,,0.00,Wunderground v.1.15,2013-03-02 14:25:00,
2013-03-02 08:30:00,15.8,12.4,30.35,WNW,284,3.0,4.0,86,0.00,,,0.00,Wunderground v.1.15,2013-03-02 14:30:00,
2013-03-02 08:40:00,16.5,12.8,30.35,NW,306,3.0,6.0,85,0.00,,,0.00,Wunderground v.1.15,2013-03-02 14:40:00,
2013-03-02 08:45:00,17.0,13.0,30.35,NNW,327,4.0,6.0,84,0.00,,,0.00,Wunderground v.1.15,2013-03-02 14:45:00,
2013-03-02 08:55:00,17.3,12.7,30.35,NW,315,4.0,4.0,82,0.00,,,0.00,Wunderground v.1.15,2013-03-02 14:55:00,
2013-03-02 09:00:00,17.5,12.9,30.36,NNW,344,4.0,5.0,82,0.00,,,0.00,Wunderground v.1.15,2013-03-02 15:00:00,
2013-03-02 09:05:00,17.7,13.1,30.35,WNW,303,4.0,5.0,82,0.00,,,0.00,Wunderground v.1.15,2013-03-02 15:05:00,
2013-03-02 09:10:00,18.0,13.2,30.36,NW,318,4.0,5.0,81,0.00,,,0.00,Wunderground v.1.15,2013-03-02 15:10:00,
2013-03-02 09:15:00,18.1,13.3,30.35,NW,309,3.0,5.0,81,0.00,,,0.00,Wunderground v.1.15,2013-03-02 15:15:00,
2013-03-02 09:25:00,18.4,13.5,30.35,NNW,348,4.0,5.0,81,0.00,,,0.00,Wunderground v.1.15,2013-03-02 15:25:00,
2013-03-02 09:30:00,18.8,13.7,30.35,NNW,346,4.0,4.0,80,0.00,,,0.00,Wunderground v.1.15,2013-03-02 15:30:00,
2013-03-02 09:35:00,18.9,13.5,30.35,NNW,331,4.0,4.0,79,0.00,,,0.00,Wunderground v.1.15,2013-03-02 15:35:00,
2013-03-02 09:40:00,19.2,13.8,30.35,NNW,340,3.0,3.0,79,0.00,,,0.00,Wunderground v.1.15,2013-03-02 15:40:00,
2013-03-02 09:45:00,19.9,14.4,30.35,NNW,335,2.0,3.0,79,0.00,,,0.00,Wunderground v.1.15,2013-03-02 15:45:00,
2013-03-02 09:50:00,20.2,14.4,30.35,NW,307,2.0,2.0,78,0.00,,,0.00,Wunderground v.1.15,2013-03-02 15:50:00,
2013-03-02 09:55:00,20.5,14.4,30.35,WNW,298,2.0,2.0,77,0.00,,,0.00,Wunderground v.1.15,2013-03-02 15:55:00,
2013-03-02 10:05:00,20.4,14.0,30.35,WNW,296,1.0,3.0,76,0.00,,,0.00,Wunderground v.1.15,2013-03-02 16:05:00,
2013-03-02 10:10:00,20.5,14.4,30.36,NW,304,2.0,4.0,77,0.00,,,0.00,Wunderground v.1.15,2013-03-02 16:10:00,
2013-03-02 10:15:00,20.4,14.0,30.36,NW,308,3.0,4.0,76,0.00,,,0.00,Wunderground v.1.15,2013-03-02 16:15:00,
2013-03-02 10:20:00,20.8,14.7,30.36,NW,319,3.0,3.0,77,0.00,,,0.00,Wunderground v.1.15,2013-03-02 16:20:00,
2013-03-02 10:25:00,21.3,14.9,30.35,NNW,347,1.0,3.0,76,0.00,,,0.00,Wunderground v.1.15,2013-03-02 16:25:00,
2013-03-02 10:30:00,21.7,15.0,30.35,NNW,343,0.0,0.0,75,0.00,,,0.00,Wunderground v.1.15,2013-03-02 16:30:00,
2013-03-02 10:35:00,21.8,15.1,30.34,NNW,344,0.0,1.0,75,0.00,,,0.00,Wunderground v.1.15,2013-03-02 16:35:00,
2013-03-02 10:45:00,22.1,15.4,30.35,NNW,336,2.0,3.0,75,0.00,,,0.00,Wunderground v.1.15,2013-03-02 16:45:00,
2013-03-02 10:50:00,22.4,15.4,30.35,NNW,340,1.0,1.0,74,0.00,,,0.00,Wunderground v.1.15,2013-03-02 16:50:00,
2013-03-02 10:55:00,22.6,15.6,30.35,NNW,327,2.0,2.0,74,0.00,,,0.00,Wunderground v.1.15,2013-03-02 16:55:00,
2013-03-02 11:00:00,23.0,15.9,30.35,NNW,342,2.0,2.0,74,0.00,,,0.00,Wunderground v.1.15,2013-03-02 17:00:00,
2013-03-02 11:10:00,23.4,16.0,30.34,NNW,336,0.0,0.0,73,0.00,,,0.00,Wunderground v.1.15,2013-03-02 17:10:00,
2013-03-02 11:15:00,23.9,16.2,30.34,NNW,341,0.0,0.0,72,0.00,,,0.00,Wunderground v.1.15,2013-03-02 17:15:00,
2013-03-02 11:20:00,23.9,16.2,30.35,NW,323,0.0,5.0,72,0.00,,,0.00,Wunderground v.1.15,2013-03-02 17:20:00,
2013-03-02 11:25:00,23.5,15.8,30.34,North,355,2.0,5.0,72,0.00,,,0.00,Wunderground v.1.15,2013-03-02 17:25:00,
2013-03-02 11:30:00,23.9,16.5,30.34,North,360,3.0,3.0,73,0.00,,,0.00,Wunderground v.1.15,2013-03-02 17:30:00,
2013-03-02 11:40:00,24.3,16.2,30.34,NNW,348,2.0,2.0,71,0.00,,,0.00,Wunderground v.1.15,2013-03-02 17:40:00,
2013-03-02 11:45:00,24.8,16.7,30.34,NNW,344,0.0,2.0,71,0.00,,,0.00,Wunderground v.1.15,2013-03-02 17:45:00,
2013-03-02 11:50:00,25.2,18.7,30.34,NNW,336,0.0,0.0,76,0.00,,,0.00,Wunderground v.1.15,2013-03-02 17:50:00,
2013-03-02 11:55:00,25.5,17.1,30.34,NNW,343,0.0,0.0,70,0.00,,,0.00,Wunderground v.1.15,2013-03-02 17:55:00,
2013-03-02 12:00:00,25.7,16.9,30.34,North,355,0.0,0.0,69,0.00,,,0.00,Wunderground v.1.15,2013-03-02 18:00:00,
2013-03-02 12:10:00,25.8,17.4,30.33,NW,322,0.0,0.0,70,0.00,,,0.00,Wunderground v.1.15,2013-03-02 18:10:00,
2013-03-02 12:15:00,25.7,16.9,30.33,NNW,341,0.0,0.0,69,0.00,,,0.00,Wunderground v.1.15,2013-03-02 18:15:00,
2013-03-02 12:20:00,26.0,17.2,30.32,NNW,337,0.0,0.0,69,0.00,,,0.00,Wunderground v.1.15,2013-03-02 18:20:00,
2013-03-02 12:25:00,26.3,17.5,30.32,NW,312,0.0,0.0,69,0.00,,,0.00,Wunderground v.1.15,2013-03-02 18:25:00,
2013-03-02 12:30:00,26.4,17.6,30.32,NW,309,1.0,1.0,69,0.00,,,0.00,Wunderground v.1.15,2013-03-02 18:30:00,
2013-03-02 12:35:00,26.3,17.5,30.32,NW,323,1.0,4.0,69,0.00,,,0.00,Wunderground v.1.15,2013-03-02 18:35:00,
2013-03-02 12:40:00,26.2,17.1,30.32,NW,305,2.0,2.0,68,0.00,,,0.00,Wunderground v.1.15,2013-03-02 18:40:00,
2013-03-02 12:50:00,26.0,17.2,30.32,West,280,2.0,2.0,69,0.00,,,0.00,Wunderground v.1.15,2013-03-02 18:50:00,
2013-03-02 12:55:00,26.4,17.6,30.31,NNW,338,1.0,2.0,69,0.00,,,0.00,Wunderground v.1.15,2013-03-02 18:55:00,
2013-03-02 13:00:00,26.9,18.1,30.31,NNW,334,0.0,0.0,69,0.00,,,0.00,Wunderground v.1.15,2013-03-02 19:00:00,
2013-03-02 13:05:00,27.5,18.7,30.31,WNW,303,0.0,0.0,69,0.00,,,0.00,Wunderground v.1.15,2013-03-02 19:05:00,
2013-03-02 13:10:00,27.9,18.7,30.31,North,355,0.0,0.0,68,0.00,,,0.00,Wunderground v.1.15,2013-03-02 19:10:00,
2013-03-02 13:20:00,27.6,18.4,30.31,WSW,254,0.0,0.0,68,0.00,,,0.00,Wunderground v.1.15,2013-03-02 19:20:00,
2013-03-02 13:25:00,27.8,18.3,30.30,WNW,298,0.0,5.0,67,0.00,,,0.00,Wunderground v.1.15,2013-03-02 19:25:00,
2013-03-02 13:30:00,27.5,18.3,30.30,NW,316,2.0,5.0,68,0.00,,,0.00,Wunderground v.1.15,2013-03-02 19:30:00,
2013-03-02 13:35:00,27.3,17.8,30.30,NW,306,3.0,5.0,67,0.00,,,0.00,Wunderground v.1.15,2013-03-02 19:35:00,
2013-03-02 13:40:00,27.2,18.0,30.30,NNW,340,2.0,2.0,68,0.00,,,0.00,Wunderground v.1.15,2013-03-02 19:40:00,
2013-03-02 13:50:00,27.9,18.7,30.29,WNW,300,0.0,0.0,68,0.00,,,0.00,Wunderground v.1.15,2013-03-02 19:50:00,
2013-03-02 13:55:00,28.0,18.5,30.29,NW,317,0.0,0.0,67,0.00,,,0.00,Wunderground v.1.15,2013-03-02 19:55:00,
2013-03-02 14:00:00,28.3,18.7,30.30,WNW,290,0.0,0.0,67,0.00,,,0.00,Wunderground v.1.15,2013-03-02 20:00:00,
2013-03-02 14:05:00,28.4,18.5,30.29,NW,315,0.0,0.0,66,0.00,,,0.00,Wunderground v.1.15,2013-03-02 20:05:00,
2013-03-02 14:10:00,28.2,18.3,30.30,NW,323,0.0,0.0,66,0.00,,,0.00,Wunderground v.1.15,2013-03-02 20:10:00,
2013-03-02 14:20:00,28.4,18.1,30.29,NW,307,0.0,0.0,65,0.00,,,0.00,Wunderground v.1.15,2013-03-02 20:20:00,
2013-03-02 14:25:00,28.4,18.5,30.29,NNW,346,0.0,1.0,66,0.00,,,0.00,Wunderground v.1.15,2013-03-02 20:25:00,
2013-03-02 14:30:00,28.4,18.1,30.29,NNW,342,0.0,0.0,65,0.00,,,0.00,Wunderground v.1.15,2013-03-02 20:30:00,
2013-03-02 14:35:00,28.3,17.7,30.29,NNW,340,0.0,0.0,64,0.00,,,0.00,Wunderground v.1.15,2013-03-02 20:35:00,
2013-03-02 14:40:00,28.4,18.1,30.29,NNW,336,0.0,0.0,65,0.00,,,0.00,Wunderground v.1.15,2013-03-02 20:40:00,
2013-03-02 14:45:00,28.3,18.0,30.29,North,360,0.0,0.0,65,0.00,,,0.00,Wunderground v.1.15,2013-03-02 20:45:00,
2013-03-02 14:55:00,28.3,17.7,30.29,North,9,0.0,0.0,64,0.00,,,0.00,Wunderground v.1.15,2013-03-02 20:55:00,
2013-03-02 15:00:00,28.3,18.0,30.29,NNE,22,0.0,0.0,65,0.00,,,0.00,Wunderground v.1.15,2013-03-02 21:00:00,
2013-03-02 15:05:00,28.4,18.5,30.29,North,355,0.0,0.0,66,0.00,,,0.00,Wunderground v.1.15,2013-03-02 21:05:00,
2013-03-02 15:10:00,28.5,17.9,30.29,NW,308,0.0,0.0,64,0.00,,,0.00,Wunderground v.1.15,2013-03-02 21:10:00,
2013-03-02 15:15:00,28.7,18.4,30.29,NNW,337,0.0,0.0,65,0.00,,,0.00,Wunderground v.1.15,2013-03-02 21:15:00,
2013-03-02 15:20:00,28.8,18.5,30.29,NNW,329,0.0,0.0,65,0.00,,,0.00,Wunderground v.1.15,2013-03-02 21:20:00,
2013-03-02 15:25:00,28.6,18.3,30.29,NNW,345,0.0,0.0,65,0.00,,,0.00,Wunderground v.1.15,2013-03-02 21:25:00,
2013-03-02 15:35:00,28.3,18.0,30.29,NNW,329,0.0,0.0,65,0.00,,,0.00,Wunderground v.1.15,2013-03-02 21:35:00,
2013-03-02 15:40:00,28.3,18.0,30.28,NW,326,0.0,0.0,65,0.00,,,0.00,Wunderground v.1.15,2013-03-02 21:40:00,
2013-03-02 15:45:00,28.3,18.4,30.28,North,360,0.0,0.0,66,0.00,,,0.00,Wunderground v.1.15,2013-03-02 21:45:00,
2013-03-02 15:50:00,28.3,18.4,30.28,NNW,336,0.0,0.0,66,0.00,,,0.00,Wunderground v.1.15,2013-03-02 21:50:00,
2013-03-02 15:55:00,28.3,18.4,30.28,NNW,338,0.0,0.0,66,0.00,,,0.00,Wunderground v.1.15,2013-03-02 21:55:00,
2013-03-02 16:05:00,28.4,18.1,30.28,NNW,344,0.0,0.0,65,0.00,,,0.00,Wunderground v.1.15,2013-03-02 22:05:00,
2013-03-02 16:10:00,28.4,18.5,30.28,North,350,0.0,0.0,66,0.00,,,0.00,Wunderground v.1.15,2013-03-02 22:10:00,
2013-03-02 16:15:00,28.4,18.5,30.28,North,350,0.0,0.0,66,0.00,,,0.00,Wunderground v.1.15,2013-03-02 22:15:00,
2013-03-02 16:20:00,28.4,18.1,30.28,NW,304,0.0,0.0,65,0.00,,,0.00,Wunderground v.1.15,2013-03-02 22:20:00,
2013-03-02 16:25:00,28.3,18.4,30.28,NNW,342,0.0,0.0,66,0.00,,,0.00,Wunderground v.1.15,2013-03-02 22:25:00,
2013-03-02 16:30:00,28.3,18.4,30.28,WNW,300,0.0,0.0,66,0.00,,,0.00,Wunderground v.1.15,2013-03-02 22:30:00,
2013-03-02 16:40:00,28.2,18.3,30.27,WNW,302,0.0,0.0,66,0.00,,,0.00,Wunderground v.1.15,2013-03-02 22:40:00,
2013-03-02 16:45:00,28.1,18.5,30.27,WNW,302,0.0,0.0,67,0.00,,,0.00,Wunderground v.1.15,2013-03-02 22:45:00,
2013-03-02 16:50:00,28.1,18.5,30.27,NW,304,0.0,0.0,67,0.00,,,0.00,Wunderground v.1.15,2013-03-02 22:50:00,
2013-03-02 16:55:00,28.2,19.0,30.27,NW,305,0.0,0.0,68,0.00,,,0.00,Wunderground v.1.15,2013-03-02 22:55:00,
2013-03-02 17:00:00,27.9,18.4,30.27,NW,304,0.0,0.0,67,0.00,,,0.00,Wunderground v.1.15,2013-03-02 23:00:00,
2013-03-02 17:10:00,27.5,18.3,30.27,NW,305,0.0,0.0,68,0.00,,,0.00,Wunderground v.1.15,2013-03-02 23:10:00,
2013-03-02 17:15:00,27.3,18.5,30.27,NW,306,0.0,0.0,69,0.00,,,0.00,Wunderground v.1.15,2013-03-02 23:15:00,
2013-03-02 17:20:00,27.0,18.2,30.27,NW,306,0.0,0.0,69,0.00,,,0.00,Wunderground v.1.15,2013-03-02 23:20:00,
2013-03-02 17:25:00,26.7,18.2,30.27,NW,306,0.0,0.0,70,0.00,,,0.00,Wunderground v.1.15,2013-03-02 23:25:00,
2013-03-02 17:30:00,26.4,17.9,30.27,NW,306,0.0,0.0,70,0.00,,,0.00,Wunderground v.1.15,2013-03-02 23:30:00,
2013-03-02 17:35:00,26.1,18.0,30.27,NW,306,0.0,0.0,71,0.00,,,0.00,Wunderground v.1.15,2013-03-02 23:35:00,
2013-03-02 17:40:00,25.8,17.7,30.27,NW,306,0.0,0.0,71,0.00,,,0.00,Wunderground v.1.15,2013-03-02 23:40:00,
2013-03-02 17:50:00,25.3,17.9,30.27,NW,306,0.0,0.0,73,0.00,,,0.00,Wunderground v.1.15,2013-03-02 23:50:00,
2013-03-02 17:55:00,25.0,17.6,30.27,NW,306,0.0,0.0,73,0.00,,,0.00,Wunderground v.1.15,2013-03-02 23:55:00,
2013-03-02 18:00:00,24.7,17.6,30.27,NW,306,0.0,0.0,74,0.00,,,0.00,Wunderground v.1.15,2013-03-03 00:00:00,
2013-03-02 18:05:00,24.4,17.6,30.27,NW,306,0.0,0.0,75,0.00,,,0.00,Wunderground v.1.15,2013-03-03 00:05:00,
2013-03-02 18:10:00,24.2,17.4,30.27,NW,306,0.0,0.0,75,0.00,,,0.00,Wunderground v.1.15,2013-03-03 00:10:00,
2013-03-02 18:20:00,23.8,17.3,30.27,NW,306,0.0,0.0,76,0.00,,,0.00,Wunderground v.1.15,2013-03-03 00:20:00,
2013-03-02 18:25:00,23.7,17.5,30.26,NW,306,0.0,0.0,77,0.00,,,0.00,Wunderground v.1.15,2013-03-03 00:25:00,
2013-03-02 18:30:00,23.5,17.3,30.26,NW,306,0.0,0.0,77,0.00,,,0.00,Wunderground v.1.15,2013-03-03 00:30:00,
2013-03-02 18:35:00,23.3,17.5,30.26,NW,306,0.0,0.0,78,0.00,,,0.00,Wunderground v.1.15,2013-03-03 00:35:00,
2013-03-02 18:40:00,23.1,17.3,30.26,NW,306,0.0,0.0,78,0.00,,,0.00,Wunderground v.1.15,2013-03-03 00:40:00,
2013-03-02 18:45:00,22.9,17.1,30.26,NW,306,0.0,0.0,78,0.00,,,0.00,Wunderground v.1.15,2013-03-03 00:45:00,
2013-03-02 18:50:00,22.6,17.1,30.26,NW,306,0.0,0.0,79,0.00,,,0.00,Wunderground v.1.15,2013-03-03 00:50:00,
2013-03-02 19:00:00,22.4,17.2,30.26,NW,306,0.0,0.0,80,0.00,,,0.00,Wunderground v.1.15,2013-03-03 01:00:00,
2013-03-02 19:05:00,22.3,17.1,30.26,NW,306,0.0,0.0,80,0.00,,,0.00,Wunderground v.1.15,2013-03-03 01:05:00,
2013-03-02 19:10:00,22.2,17.0,30.26,NW,306,0.0,0.0,80,0.00,,,0.00,Wunderground v.1.15,2013-03-03 01:10:00,
2013-03-02 19:15:00,22.0,16.8,30.26,NW,306,0.0,0.0,80,0.00,,,0.00,Wunderground v.1.15,2013-03-03 01:15:00,
2013-03-02 19:25:00,21.6,16.7,30.26,NW,306,0.0,0.0,81,0.00,,,0.00,Wunderground v.1.15,2013-03-03 01:25:00,
2013-03-02 19:30:00,21.3,16.4,30.26,NW,306,0.0,0.0,81,0.00,,,0.00,Wunderground v.1.15,2013-03-03 01:30:00,
2013-03-02 19:35:00,21.2,16.3,30.26,NW,306,0.0,0.0,81,0.00,,,0.00,Wunderground v.1.15,2013-03-03 01:35:00,
2013-03-02 19:40:00,21.0,16.4,30.26,NW,306,0.0,0.0,82,0.00,,,0.00,Wunderground v.1.15,2013-03-03 01:40:00,
2013-03-02 19:45:00,20.8,16.2,30.25,NW,306,0.0,0.0,82,0.00,,,0.00,Wunderground v.1.15,2013-03-03 01:45:00,
2013-03-02 19:50:00,20.6,16.0,30.25,NW,306,0.0,0.0,82,0.00,,,0.00,Wunderground v.1.15,2013-03-03 01:50:00,
2013-03-02 20:00:00,20.3,16.0,30.25,NW,306,0.0,0.0,83,0.00,,,0.00,Wunderground v.1.15,2013-03-03 02:00:00,
2013-03-02 20:05:00,20.1,15.5,30.25,NW,306,0.0,0.0,82,0.00,,,0.00,Wunderground v.1.15,2013-03-03 02:05:00,
2013-03-02 20:15:00,19.5,15.2,30.25,NW,306,0.0,0.0,83,0.00,,,0.00,Wunderground v.1.15,2013-03-03 02:15:00,
2013-03-02 20:20:00,19.2,15.2,30.26,NW,306,0.0,0.0,84,0.00,,,0.00,Wunderground v.1.15,2013-03-03 02:20:00,
2013-03-02 20:25:00,19.0,15.0,30.26,NW,306,0.0,0.0,84,0.00,,,0.00,Wunderground v.1.15,2013-03-03 02:25:00,
2013-03-02 20:30:00,18.9,15.1,30.25,NW,306,0.0,0.0,85,0.00,,,0.00,Wunderground v.1.15,2013-03-03 02:30:00,
2013-03-02 20:35:00,19.2,15.7,30.26,NW,306,0.0,0.0,86,0.00,,,0.00,Wunderground v.1.15,2013-03-03 02:35:00,
2013-03-02 20:40:00,19.2,15.4,30.26,NW,306,0.0,0.0,85,0.00,,,0.00,Wunderground v.1.15,2013-03-03 02:40:00,
2013-03-02 20:45:00,19.2,15.4,30.25,NW,306,0.0,0.0,85,0.00,,,0.00,Wunderground v.1.15,2013-03-03 02:45:00,
2013-03-02 20:50:00,19.1,15.3,30.25,NW,306,0.0,0.0,85,0.00,,,0.00,Wunderground v.1.15,2013-03-03 02:50:00,
2013-03-02 20:55:00,18.9,15.4,30.26,NW,306,0.0,0.0,86,0.00,,,0.00,Wunderground v.1.15,2013-03-03 02:55:00,
2013-03-02 21:05:00,18.9,15.4,30.26,NW,306,0.0,0.0,86,0.00,,,0.00,Wunderground v.1.15,2013-03-03 03:05:00,
2013-03-02 21:10:00,18.9,15.4,30.26,NW,306,0.0,0.0,86,0.00,,,0.00,Wunderground v.1.15,2013-03-03 03:10:00,
2013-03-02 21:15:00,19.1,15.9,30.26,NW,306,0.0,0.0,87,0.00,,,0.00,Wunderground v.1.15,2013-03-03 03:15:00,
2013-03-02 21:20:00,19.2,16.0,30.25,NW,306,0.0,0.0,87,0.00,,,0.00,Wunderground v.1.15,2013-03-03 03:20:00,
2013-03-02 21:25:00,19.2,16.0,30.25,NW,306,0.0,0.0,87,0.00,,,0.00,Wunderground v.1.15,2013-03-03 03:25:00,
2013-03-02 21:30:00,19.2,16.0,30.25,NW,306,0.0,0.0,87,0.00,,,0.00,Wunderground v.1.15,2013-03-03 03:30:00,
2013-03-02 21:35:00,19.4,16.2,30.26,NW,306,0.0,0.0,87,0.00,,,0.00,Wunderground v.1.15,2013-03-03 03:35:00,
2013-03-02 21:40:00,19.6,16.4,30.25,NW,306,0.0,0.0,87,0.00,,,0.00,Wunderground v.1.15,2013-03-03 03:40:00,
2013-03-02 21:45:00,20.0,16.8,30.25,NW,306,0.0,0.0,87,0.00,,,0.00,Wunderground v.1.15,2013-03-03 03:45:00,
2013-03-02 21:50:00,20.2,16.7,30.25,NW,306,0.0,0.0,86,0.00,,,0.00,Wunderground v.1.15,2013-03-03 03:50:00,
2013-03-02 22:00:00,20.5,16.7,30.25,NW,306,0.0,0.0,85,0.00,,,0.00,Wunderground v.1.15,2013-03-03 04:00:00,
2013-03-02 22:05:00,20.7,16.9,30.25,NW,306,0.0,0.0,85,0.00,,,0.00,Wunderground v.1.15,2013-03-03 04:05:00,
2013-03-02 22:10:00,20.8,17.0,30.24,NW,306,0.0,0.0,85,0.00,,,0.00,Wunderground v.1.15,2013-03-03 04:10:00,
2013-03-02 22:15:00,20.8,16.7,30.24,NW,306,0.0,0.0,84,0.00,,,0.00,Wunderground v.1.15,2013-03-03 04:15:00,
2013-03-02 22:25:00,20.8,16.7,30.24,NW,306,0.0,0.0,84,0.00,,,0.00,Wunderground v.1.15,2013-03-03 04:25:00,
2013-03-02 22:30:00,20.8,16.7,30.24,NW,306,0.0,0.0,84,0.00,,,0.00,Wunderground v.1.15,2013-03-03 04:30:00,
2013-03-02 22:35:00,20.7,16.6,30.24,NW,306,0.0,0.0,84,0.00,,,0.00,Wunderground v.1.15,2013-03-03 04:35:00,
2013-03-02 22:40:00,20.7,16.4,30.24,NW,306,0.0,0.0,83,0.00,,,0.00,Wunderground v.1.15,2013-03-03 04:40:00,
2013-03-02 22:45:00,20.6,16.3,30.24,NW,306,0.0,0.0,83,0.00,,,0.00,Wunderground v.1.15,2013-03-03 04:45:00,
2013-03-02 22:50:00,20.7,16.4,30.24,NW,306,0.0,0.0,83,0.00,,,0.00,Wunderground v.1.15,2013-03-03 04:50:00,
2013-03-02 22:55:00,20.8,16.5,30.24,NW,306,0.0,0.0,83,0.00,,,0.00,Wunderground v.1.15,2013-03-03 04:55:00,
2013-03-02 23:00:00,20.9,16.5,30.23,NW,306,0.0,0.0,83,0.00,,,0.00,Wunderground v.1.15,2013-03-03 05:00:00,
2013-03-02 23:05:00,20.9,16.5,30.23,NW,306,0.0,0.0,83,0.00,,,0.00,Wunderground v.1.15,2013-03-03 05:05:00,
2013-03-02 23:10:00,20.8,16.5,30.23,NW,306,0.0,0.0,83,0.00,,,0.00,Wunderground v.1.15,2013-03-03 05:10:00,
2013-03-02 23:15:00,20.7,16.4,30.24,NW,306,0.0,0.0,83,0.00,,,0.00,Wunderground v.1.15,2013-03-03 05:15:00,
2013-03-02 23:20:00,20.7,16.4,30.24,SW,233,0.0,0.0,83,0.00,,,0.00,Wunderground v.1.15,2013-03-03 05:20:00,
2013-03-02 23:25:00,20.7,16.4,30.24,South,178,0.0,0.0,83,0.00,,,0.00,Wunderground v.1.15,2013-03-03 05:25:00,
2013-03-02 23:35:00,20.7,16.4,30.23,South,178,0.0,0.0,83,0.00,,,0.00,Wunderground v.1.15,2013-03-03 05:35:00,
2013-03-02 23:40:00,20.8,16.5,30.23,SSE,167,0.0,0.0,83,0.00,,,0.00,Wunderground v.1.15,2013-03-03 05:40:00,
2013-03-02 23:45:00,20.8,16.5,30.23,SSE,167,0.0,0.0,83,0.00,,,0.00,Wunderground v.1.15,2013-03-03 05:45:00,
2013-03-02 23:50:00,20.8,16.5,30.23,SSE,167,0.0,0.0,83,0.00,,,0.00,Wunderground v.1.15,2013-03-03 05:50:00,